Time;durP1;ratioP1;P1;durP2;ratioP2;P2;SDS_P1;SDS_P2;PMS_P1;PMS_P2;Temp;Humidity;BMP_temperature;BMP_pressure;BME280_temperature;BME280_humidity;BME280_pressure;Samples;Min_cycle;Max_cycle;Signal;HPM_P1;HPM_P2
2024/02/24 00:01:00;;;;;;;27.60;14.00;;;;;;;-147.86;100.00;32084.18;105900;1251;62571;-54
2024/02/24 00:03:28;;;;;;;32.20;14.70;;;;;;;-147.86;100.00;32170.85;105984;1251;71367;-52
2024/02/24 00:05:56;;;;;;;29.40;14.10;;;;;;;-147.86;100.00;32217.32;105932;1252;59740;-53
2024/02/24 00:08:24;;;;;;;27.30;13.40;;;;;;;-147.86;100.00;32305.19;105910;1257;59605;-58
2024/02/24 00:10:52;;;;;;;25.90;14.00;;;;;;;-147.86;100.00;32364.55;105983;1251;71560;-55
2024/02/24 00:13:20;;;;;;;25.50;13.70;;;;;;;-147.86;100.00;32514.10;105882;1251;63247;-57
2024/02/24 00:15:48;;;;;;;28.40;14.90;;;;;;;-147.86;100.00;32600.03;105923;1254;71456;-55
2024/02/24 00:18:16;;;;;;;28.40;14.90;;;;;;;-147.86;100.00;32764.03;105943;1251;59710;-57
2024/02/24 00:20:44;;;;;;;29.70;15.20;;;;;;;-147.86;100.00;32803.09;105972;1255;59740;-56
2024/02/24 00:23:12;;;;;;;23.90;13.60;;;;;;;-147.86;100.00;32878.07;105907;1251;71710;-55
2024/02/24 01:00:53;;;;;;;27.30;12.90;;;;;;;-147.86;100.00;39165.61;102595;1292;600499;-53
2024/02/24 01:03:21;;;;;;;23.40;12.80;;;;;;;-147.86;100.00;30815.41;104815;1271;59630;-52
2024/02/24 01:05:49;;;;;;;26.00;14.50;;;;;;;-147.86;100.00;31821.82;104813;1266;60150;-52
2024/02/24 01:08:17;;;;;;;19.60;12.00;;;;;;;-147.86;100.00;32105.68;104807;1267;70954;-51
2024/02/24 01:10:45;;;;;;;23.60;13.50;;;;;;;-147.86;100.00;32311.04;104829;1270;63179;-55
2024/02/24 01:13:14;;;;;;;24.00;12.90;;;;;;;-147.86;100.00;32357.93;104818;1266;71456;-57
2024/02/24 01:15:41;;;;;;;22.90;13.40;;;;;;;-147.86;100.00;32436.02;104892;1267;265214;-51
2024/02/24 01:18:10;;;;;;;26.60;13.30;;;;;;;-147.86;100.00;32566.81;105177;1263;60150;-54
2024/02/24 01:20:37;;;;;;;28.40;13.40;;;;;;;-147.86;100.00;32531.69;105219;1264;71045;-56
2024/02/24 01:23:05;;;;;;;23.00;12.30;;;;;;;-147.86;100.00;32603.91;105157;1267;64465;-53
2024/02/24 01:25:33;;;;;;;22.30;13.50;;;;;;;-147.86;100.00;32631.64;105139;1264;71375;-54
2024/02/24 01:28:01;;;;;;;28.30;13.50;;;;;;;-147.86;100.00;32650.78;105167;1267;59757;-53
2024/02/24 01:30:29;;;;;;;30.40;13.80;;;;;;;-147.86;100.00;32640.25;105105;1270;59561;-58
2024/02/24 01:32:58;;;;;;;23.40;13.90;;;;;;;-147.86;100.00;32747.62;105155;1267;72376;-56
2024/02/24 01:35:25;;;;;;;22.90;13.00;;;;;;;-147.86;100.00;32740.61;105158;1264;63216;-50
2024/02/24 01:37:54;;;;;;;22.20;11.70;;;;;;;-147.86;100.00;32803.86;105206;1266;72625;-57
2024/02/24 01:40:21;;;;;;;22.00;13.00;;;;;;;-147.86;100.00;32809.73;105215;1264;59752;-57
2024/02/24 02:00:34;;;;;;;22.20;12.60;;;;;;;-147.86;100.00;38673.70;102959;1289;603004;-54
2024/02/24 02:03:02;;;;;;;23.90;12.30;;;;;;;-147.86;100.00;28570.30;105099;1269;60579;-57
2024/02/24 02:05:29;;;;;;;26.60;12.30;;;;;;;-147.86;100.00;31425.18;105228;1263;60259;-53
2024/02/24 02:07:56;;;;;;;18.30;11.60;;;;;;;-147.86;100.00;31889.73;105190;1267;72652;-54
2024/02/24 02:10:23;;;;;;;22.00;11.70;;;;;;;-147.86;100.00;32139.99;105114;1269;64740;-52
2024/02/24 02:12:50;;;;;;;20.90;11.80;;;;;;;-147.86;100.00;32275.49;105056;1267;237907;-51
2024/02/24 02:15:18;;;;;;;19.60;11.80;;;;;;;-147.86;100.00;32315.33;105272;1261;60250;-54
2024/02/24 02:17:45;;;;;;;19.70;11.30;;;;;;;-147.86;100.00;32475.03;105230;1260;60215;-52
2024/02/24 02:20:12;;;;;;;23.10;12.60;;;;;;;-147.86;100.00;32513.70;105247;1266;71973;-56
2024/02/24 02:22:39;;;;;;;23.50;12.30;;;;;;;-147.86;100.00;32560.16;105240;1264;63642;-52
2024/02/24 02:25:07;;;;;;;26.50;12.90;;;;;;;-147.86;100.00;32630.44;105271;1264;72622;-56
2024/02/24 02:27:34;;;;;;;21.50;12.10;;;;;;;-147.86;100.00;32590.25;105253;1260;60293;-53
2024/02/24 02:30:03;;;;;;;18.80;10.80;;;;;;;-147.86;100.00;32746.04;105264;1261;60290;-56
2024/02/24 02:32:30;;;;;;;25.70;12.60;;;;;;;-147.86;100.00;32689.07;105241;1261;73012;-55
2024/02/24 02:34:57;;;;;;;24.90;12.10;;;;;;;-147.86;100.00;32861.26;105277;1261;63500;-55
2024/02/24 02:37:24;;;;;;;26.50;12.40;;;;;;;-147.86;100.00;32988.96;105247;1264;72484;-58
2024/02/24 02:39:51;;;;;;;30.00;13.70;;;;;;;-147.86;100.00;33058.87;105237;1264;60356;-51
2024/02/24 02:42:18;;;;;;;21.80;12.80;;;;;;;-147.86;100.00;33158.85;105287;1260;60299;-55
2024/02/24 02:44:46;;;;;;;20.90;11.80;;;;;;;-147.86;100.00;33134.27;105232;1260;71482;-53
2024/02/24 02:47:13;;;;;;;26.40;13.00;;;;;;;-147.86;100.00;33254.16;105247;1264;64807;-53
2024/02/24 02:49:49;;;;;;;25.50;13.00;;;;;;;-147.86;100.00;32498.41;105197;1261;72549;-55
2024/02/24 02:52:16;;;;;;;23.60;14.10;;;;;;;-147.86;100.00;33331.90;105235;1264;60319;-54
2024/02/24 02:54:43;;;;;;;24.70;13.60;;;;;;;-147.86;100.00;33507.66;105259;1261;60185;-56
2024/02/24 02:57:10;;;;;;;31.40;14.50;;;;;;;-147.86;100.00;33602.18;105223;1264;73047;-53
2024/02/24 02:59:37;;;;;;;21.60;11.30;;;;;;;-147.86;100.00;33662.73;105269;1266;64647;-56
2024/02/24 03:02:04;;;;;;;20.80;12.30;;;;;;;-147.86;100.00;33746.32;105151;1266;72642;-53
2024/02/24 03:04:31;;;;;;;24.60;12.30;;;;;;;-147.86;100.00;33802.18;105921;1254;62042;-54
2024/02/24 03:06:58;;;;;;;23.70;12.60;;;;;;;-147.86;100.00;33874.45;105911;1250;60033;-55
2024/02/24 03:09:25;;;;;;;22.90;12.90;;;;;;;-147.86;100.00;33988.90;105938;1254;72956;-53
2024/02/24 03:11:52;;;;;;;24.80;12.70;;;;;;;-147.86;100.00;34045.94;105969;1254;64655;-51
2024/02/24 03:14:19;;;;;;;20.80;12.40;;;;;;;-147.86;100.00;34072.51;105966;1251;72574;-57
2024/02/24 03:16:48;;;;;;;22.30;12.70;;;;;;;-147.86;100.00;34100.65;105933;1254;61756;-56
2024/02/24 03:19:15;;;;;;;24.40;12.40;;;;;;;-147.86;100.00;34063.96;105905;1251;60658;-57
2024/02/24 03:21:42;;;;;;;25.80;13.50;;;;;;;-147.86;100.00;34250.66;105986;1255;72904;-56
2024/02/24 03:24:09;;;;;;;25.60;13.60;;;;;;;-147.86;100.00;34328.79;105946;1254;64709;-54
2024/02/24 03:26:36;;;;;;;25.50;13.40;;;;;;;-147.86;100.00;34369.04;105907;1254;72639;-55
2024/02/24 03:29:03;;;;;;;22.30;12.40;;;;;;;-147.86;100.00;34406.15;105907;1254;60995;-56
2024/02/24 03:31:30;;;;;;;22.50;11.80;;;;;;;-147.86;100.00;34410.45;105854;1251;60261;-53
2024/02/24 03:33:57;;;;;;;25.50;12.40;;;;;;;-147.86;100.00;34471.79;105917;1251;73059;-54
2024/02/24 03:36:24;;;;;;;22.60;13.10;;;;;;;-147.86;100.00;34479.21;105992;1254;64521;-52
2024/02/24 03:38:51;;;;;;;23.40;12.80;;;;;;;-147.86;100.00;34516.72;105949;1250;72748;-57
2024/02/24 03:41:18;;;;;;;22.40;13.00;;;;;;;-147.86;100.00;34521.02;105942;1254;60851;-56
2024/02/24 03:43:46;;;;;;;24.10;13.10;;;;;;;-147.86;100.00;34541.33;105971;1251;60711;-52
2024/02/24 03:46:13;;;;;;;22.10;13.00;;;;;;;-147.86;100.00;34472.59;106024;1254;72915;-49
2024/02/24 03:48:39;;;;;;;24.30;13.10;;;;;;;-147.86;100.00;34571.02;105929;1254;64856;-51
2024/02/24 03:51:07;;;;;;;25.30;13.60;;;;;;;-147.86;100.00;34585.10;105962;1252;72829;-55
2024/02/24 03:53:33;;;;;;;27.30;13.00;;;;;;;-147.86;100.00;34652.68;105938;1254;61109;-54
2024/02/24 03:56:00;;;;;;;24.20;13.40;;;;;;;-147.86;100.00;34710.90;105937;1254;59516;-54
2024/02/24 03:58:27;;;;;;;24.50;12.90;;;;;;;-147.86;100.00;34741.38;105952;1254;72959;-53
2024/02/24 04:00:55;;;;;;;26.50;14.00;;;;;;;-147.86;100.00;34749.59;106006;1253;64681;-53
2024/02/24 04:03:23;;;;;;;23.70;13.60;;;;;;;-147.86;100.00;34709.76;105867;1250;72667;-58
2024/02/24 04:05:50;;;;;;;23.20;13.20;;;;;;;-147.86;100.00;34711.32;105951;1251;59901;-54
2024/02/24 04:08:17;;;;;;;31.70;13.80;;;;;;;-147.86;100.00;34782.02;105944;1251;60238;-51
2024/02/24 04:10:44;;;;;;;29.20;13.50;;;;;;;-147.86;100.00;34799.21;105933;1251;72996;-55
2024/02/24 04:13:11;;;;;;;24.30;13.90;;;;;;;-147.86;100.00;34754.29;105980;1250;65413;-55
2024/02/24 04:15:45;;;;;;;24.00;12.80;;;;;;;-147.86;100.00;34740.99;106005;1251;71654;-53
2024/02/24 04:18:12;;;;;;;25.20;13.20;;;;;;;-147.86;100.00;34224.67;105909;1250;61131;-55
2024/02/24 04:20:40;;;;;;;24.90;13.60;;;;;;;-147.86;100.00;34511.66;105954;1251;60287;-55
2024/02/24 04:23:07;;;;;;;21.50;12.80;;;;;;;-147.86;100.00;34489.78;105953;1254;73446;-56
2024/02/24 04:25:34;;;;;;;26.90;14.20;;;;;;;-147.86;100.00;34523.36;105947;1254;64670;-58
2024/02/24 04:28:02;;;;;;;25.50;13.90;;;;;;;-147.86;100.00;34512.80;105980;1250;72361;-53
2024/02/24 04:30:29;;;;;;;20.90;12.90;;;;;;;-147.86;100.00;34365.14;106008;1254;60393;-54
2024/02/24 04:32:56;;;;;;;26.00;13.90;;;;;;;-147.86;100.00;34217.83;106004;1251;60366;-55
2024/02/24 04:35:23;;;;;;;24.30;13.50;;;;;;;-147.86;100.00;33932.24;105983;1252;72021;-54
2024/02/24 04:37:50;;;;;;;22.20;13.30;;;;;;;-147.86;100.00;33163.51;105997;1254;64692;-57
2024/02/24 04:40:19;;;;;;;25.00;13.60;;;;;;;-147.86;100.00;31173.13;105929;1251;72633;-57
2024/02/24 04:42:46;;;;;;;26.20;14.80;;;;;;;-147.86;100.00;30215.53;105944;1254;60263;-56
2024/02/24 04:45:13;;;;;;;25.40;14.20;;;;;;;-147.86;100.00;30393.42;105967;1250;60266;-55
2024/02/24 04:47:40;;;;;;;25.70;13.20;;;;;;;-147.86;100.00;30459.00;105940;1254;73018;-55
2024/02/24 04:50:08;;;;;;;26.40;13.50;;;;;;;-147.86;100.00;30508.57;105953;1251;64652;-56
2024/02/24 04:52:36;;;;;;;24.40;14.60;;;;;;;-147.86;100.00;30460.99;105928;1251;71513;-57
2024/02/24 04:55:03;;;;;;;28.90;14.40;;;;;;;-147.86;100.00;30575.69;105913;1254;60400;-56
2024/02/24 04:57:31;;;;;;;27.90;14.50;;;;;;;-147.86;100.00;30542.55;105984;1251;60190;-55
2024/02/24 04:59:58;;;;;;;28.60;14.00;;;;;;;-147.86;100.00;30524.98;105934;1254;73030;-54
2024/02/24 05:02:25;;;;;;;24.40;14.10;;;;;;;-147.86;100.00;30596.39;105795;1254;63637;-55
2024/02/24 05:04:52;;;;;;;27.70;14.60;;;;;;;-147.86;100.00;30583.14;105954;1251;72504;-52
2024/02/24 05:07:19;;;;;;;28.70;14.20;;;;;;;-147.86;100.00;30660.40;105978;1254;60288;-54
2024/02/24 05:09:46;;;;;;;28.40;15.00;;;;;;;-147.86;100.00;30718.95;105978;1250;59982;-56
2024/02/24 05:12:13;;;;;;;29.40;14.60;;;;;;;-147.86;100.00;30783.35;105980;1251;72962;-57
2024/02/24 05:14:40;;;;;;;23.30;14.00;;;;;;;-147.86;100.00;30813.81;105946;1254;64548;-54
2024/02/24 05:17:07;;;;;;;21.30;13.00;;;;;;;-147.86;100.00;30859.47;105980;1251;72689;-54
2024/02/24 05:19:36;;;;;;;24.10;12.50;;;;;;;-147.86;100.00;30801.73;105958;1250;61872;-55
2024/02/24 05:22:03;;;;;;;22.90;12.90;;;;;;;-147.86;100.00;30852.85;105955;1250;60289;-54
2024/02/24 05:24:30;;;;;;;23.50;12.80;;;;;;;-147.86;100.00;30891.10;105970;1251;73443;-53
2024/02/24 05:26:57;;;;;;;23.50;13.70;;;;;;;-147.86;100.00;30949.25;105962;1254;64799;-52
2024/02/24 05:29:24;;;;;;;24.20;12.60;;;;;;;-147.86;100.00;30936.37;105943;1251;72530;-54
2024/02/24 05:31:51;;;;;;;24.50;12.80;;;;;;;-147.86;100.00;30882.12;105972;1254;62061;-54
2024/02/24 05:34:18;;;;;;;24.00;12.70;;;;;;;-147.86;100.00;30832.14;105984;1254;60352;-56
2024/02/24 05:36:45;;;;;;;25.30;13.30;;;;;;;-147.86;100.00;30665.87;105981;1251;72890;-53
2024/02/24 05:39:12;;;;;;;24.00;12.90;;;;;;;-147.86;100.00;30535.11;105946;1254;64630;-55
2024/02/24 05:41:39;;;;;;;22.70;13.70;;;;;;;-147.86;100.00;30519.88;105950;1251;72612;-56
2024/02/24 05:44:06;;;;;;;22.30;13.80;;;;;;;-147.86;100.00;30356.36;105969;1254;61318;-54
2024/02/24 05:46:33;;;;;;;22.00;13.30;;;;;;;-147.86;100.00;30262.30;106025;1251;60605;-54
2024/02/24 05:49:00;;;;;;;22.30;12.60;;;;;;;-147.86;100.00;30149.49;105950;1250;73165;-48
2024/02/24 05:51:27;;;;;;;29.40;14.10;;;;;;;-147.86;100.00;29973.49;105962;1253;64701;-55
2024/02/24 05:53:54;;;;;;;29.30;13.90;;;;;;;-147.86;100.00;29797.49;105927;1251;72519;-53
2024/02/24 05:56:21;;;;;;;28.00;15.60;;;;;;;-147.86;100.00;29640.61;106021;1254;61250;-57
2024/02/24 05:58:48;;;;;;;30.40;15.80;;;;;;;-147.86;100.00;29412.33;105918;1250;60250;-52
2024/02/24 06:01:15;;;;;;;33.70;15.80;;;;;;;-147.86;100.00;29186.79;105892;1254;72732;-54
2024/02/24 06:03:42;;;;;;;31.60;16.90;;;;;;;-147.86;100.00;28928.51;105917;1253;64539;-52
2024/02/24 06:06:09;;;;;;;31.70;16.10;;;;;;;-147.86;100.00;28629.29;105916;1251;72383;-49
2024/02/24 06:08:36;;;;;;;29.70;16.20;;;;;;;-147.86;100.00;28432.28;105911;1254;61962;-56
2024/02/24 06:11:04;;;;;;;25.20;15.60;;;;;;;-147.86;100.00;28306.29;105942;1250;60453;-55
2024/02/24 06:13:31;;;;;;;27.40;15.60;;;;;;;-147.86;100.00;28239.58;105891;1254;74039;-56
2024/02/24 06:15:58;;;;;;;31.60;15.40;;;;;;;-147.86;100.00;28224.74;105882;1254;64886;-53
2024/02/24 06:18:25;;;;;;;31.50;15.60;;;;;;;-147.86;100.00;28300.82;105975;1250;72509;-56
2024/02/24 06:20:52;;;;;;;32.50;16.80;;;;;;;-147.86;100.00;28428.01;105925;1254;60435;-56
2024/02/24 06:23:19;;;;;;;31.50;17.20;;;;;;;-147.86;100.00;28602.79;105938;1250;60435;-56
2024/02/24 06:25:46;;;;;;;33.60;17.20;;;;;;;-147.86;100.00;31344.47;105953;1251;73850;-56
2024/02/24 06:28:14;;;;;;;28.10;16.30;;;;;;;-147.86;100.00;32669.12;105902;1254;64660;-55
2024/02/24 06:30:41;;;;;;;32.50;17.60;;;;;;;-147.86;100.00;32701.16;105966;1250;72591;-54
2024/02/24 06:33:08;;;;;;;30.80;16.40;;;;;;;-147.86;100.00;32792.13;105969;1254;60355;-54
2024/02/24 06:35:36;;;;;;;36.40;18.30;;;;;;;-147.86;100.00;32967.51;105949;1254;60428;-57
2024/02/24 06:38:03;;;;;;;31.90;17.40;;;;;;;-147.86;100.00;33172.54;105883;1254;73684;-54
2024/02/24 06:40:30;;;;;;;26.70;15.20;;;;;;;-147.86;100.00;33333.45;105960;1250;64677;-60
2024/02/24 06:43:11;;;;;;;26.30;15.40;;;;;;;-147.86;100.00;32320.96;105913;1251;72578;-55
2024/02/24 06:45:38;;;;;;;28.80;16.20;;;;;;;-147.86;100.00;33377.21;105927;1254;60506;-57
2024/02/24 06:48:06;;;;;;;32.60;15.80;;;;;;;-147.86;100.00;33564.30;105915;1250;60457;-55
2024/02/24 06:50:34;;;;;;;31.60;15.80;;;;;;;-147.86;100.00;33585.81;105897;1257;73853;-55
2024/02/24 06:53:01;;;;;;;24.50;14.80;;;;;;;-147.86;100.00;33694.76;105956;1251;64532;-53
2024/02/24 06:55:28;;;;;;;32.70;17.30;;;;;;;-147.86;100.00;33659.21;105896;1250;73817;-52
2024/02/24 06:57:55;;;;;;;30.70;16.50;;;;;;;-147.86;100.00;33645.93;105925;1253;60543;-58
2024/02/24 07:00:23;;;;;;;33.10;16.20;;;;;;;-147.86;100.00;33641.24;105959;1250;60549;-53
2024/02/24 07:02:50;;;;;;;36.00;17.20;;;;;;;-147.86;100.00;33533.45;105976;1253;73855;-53
2024/02/24 07:05:18;;;;;;;30.80;16.20;;;;;;;-147.86;100.00;33424.46;105968;1254;64661;-54
2024/02/24 07:07:45;;;;;;;29.20;15.80;;;;;;;-147.86;100.00;33319.38;105906;1251;72636;-56
2024/02/24 07:10:13;;;;;;;30.40;16.30;;;;;;;-147.86;100.00;33168.64;105960;1250;60505;-57
2024/02/24 07:12:40;;;;;;;34.40;16.70;;;;;;;-147.86;100.00;33120.57;105940;1251;60453;-54
2024/02/24 07:15:10;;;;;;;34.60;16.50;;;;;;;-147.86;100.00;32710.58;105948;1250;73957;-55
2024/02/24 07:17:38;;;;;;;32.60;16.40;;;;;;;-147.86;100.00;32582.81;105982;1254;64647;-55
2024/02/24 07:20:06;;;;;;;32.10;16.70;;;;;;;-147.86;100.00;32371.53;105964;1251;72576;-56
2024/02/24 07:22:33;;;;;;;35.60;17.70;;;;;;;-147.86;100.00;32058.38;105923;1254;60438;-56
2024/02/24 07:25:00;;;;;;;36.80;17.40;;;;;;;-147.86;100.00;31666.74;106027;1251;60495;-54
2024/02/24 07:27:28;;;;;;;30.00;15.80;;;;;;;-147.86;100.00;31281.81;105972;1251;72706;-58
2024/02/24 07:29:56;;;;;;;36.00;15.40;;;;;;;-147.86;100.00;30927.39;105973;1254;63371;-55
2024/02/24 07:32:23;;;;;;;40.90;17.60;;;;;;;-147.86;100.00;30722.42;105969;1250;72539;-55
2024/02/24 07:34:51;;;;;;;31.30;16.70;;;;;;;-147.86;100.00;30291.56;105962;1254;60466;-53
2024/02/24 07:37:18;;;;;;;31.70;16.40;;;;;;;-147.86;100.00;30073.36;105944;1250;60460;-59
2024/02/24 07:39:46;;;;;;;28.80;15.00;;;;;;;-147.86;100.00;29584.39;105943;1254;73840;-56
2024/02/24 07:42:15;;;;;;;31.30;15.20;;;;;;;-147.86;100.00;29011.99;105961;1254;64614;-54
2024/02/24 07:44:43;;;;;;;27.30;15.40;;;;;;;-147.86;100.00;28371.09;106022;1254;71499;-58
2024/02/24 07:47:10;;;;;;;28.20;15.90;;;;;;;-147.86;100.00;28070.68;105920;1254;60638;-56
2024/02/24 07:49:37;;;;;;;31.30;14.50;;;;;;;-147.86;100.00;27706.33;106012;1250;61714;-55
2024/02/24 07:52:05;;;;;;;27.60;15.10;;;;;;;-147.86;100.00;27015.65;105974;1251;72468;-55
2024/02/24 07:55:40;;;;;;;32.90;15.10;;;;;;;-147.86;100.00;14190.24;102712;1292;600088;-51
2024/02/24 07:58:09;;;;;;;25.40;14.40;;;;;;;-147.86;100.00;-9852.19;104807;1265;60056;-52
2024/02/24 08:00:36;;;;;;;24.50;13.20;;;;;;;-147.86;100.00;-13716.66;105137;1263;59251;-56
2024/02/24 08:03:04;;;;;;;26.40;14.30;;;;;;;-147.86;100.00;-8023.61;105123;1263;71084;-54
2024/02/24 08:05:32;;;;;;;29.30;14.00;;;;;;;-147.86;100.00;-3729.09;105584;1260;65003;-56
2024/02/24 08:08:00;;;;;;;25.90;14.00;;;;;;;-147.86;100.00;-1609.70;105583;1254;72515;-55
2024/02/24 08:10:28;;;;;;;27.10;14.90;;;;;;;-147.86;100.00;-1364.75;105706;1256;287150;-52
2024/02/24 08:12:56;;;;;;;25.10;13.70;;;;;;;-147.86;100.00;-1756.90;105676;1253;59350;-55
2024/02/24 08:15:23;;;;;;;22.50;13.40;;;;;;;-147.86;100.00;-2604.15;105704;1252;71009;-54
2024/02/24 08:17:52;;;;;;;26.50;13.50;;;;;;;-147.86;100.00;-3845.44;105681;1253;63261;-53
2024/02/24 08:20:19;;;;;;;24.70;15.00;;;;;;;-147.86;100.00;-5121.13;105899;1256;72600;-55
2024/02/24 09:00:16;;;;;;;24.50;13.90;;;;;;;-147.86;100.00;-4720.79;102932;1288;600873;-55
2024/02/24 09:02:44;;;;;;;24.90;13.10;;;;;;;-147.86;100.00;-17609.17;105058;1267;60064;-55
2024/02/24 09:05:13;;;;;;;24.90;13.50;;;;;;;-147.86;100.00;-17609.17;105157;1264;59866;-53
2024/02/24 09:07:41;;;;;;;24.40;13.60;;;;;;;-147.86;100.00;-17609.17;105169;1264;70959;-57
2024/02/24 09:10:09;;;;;;;23.00;12.80;;;;;;;-147.86;100.00;-17609.17;105141;1264;63311;-56
2024/02/24 09:12:38;;;;;;;26.40;14.50;;;;;;;-147.86;100.00;-17609.17;105090;1267;71371;-57
2024/02/24 09:15:06;;;;;;;24.60;13.70;;;;;;;-147.86;100.00;-17609.17;105114;1265;245834;-55
2024/02/24 09:17:34;;;;;;;24.20;13.30;;;;;;;-147.86;100.00;-17609.17;105263;1263;59310;-56
2024/02/24 09:20:03;;;;;;;30.20;14.50;;;;;;;-147.86;100.00;-17609.17;105226;1261;70948;-59
2024/02/24 09:22:31;;;;;;;30.40;14.10;;;;;;;-147.86;100.00;-17609.17;105218;1266;63207;-51
2024/02/24 09:24:58;;;;;;;25.20;14.80;;;;;;;-147.86;100.00;-17609.17;105204;1264;71389;-57
2024/02/24 09:27:26;;;;;;;27.20;15.00;;;;;;;-147.86;100.00;-17609.17;105290;1261;59636;-57
2024/02/24 09:29:54;;;;;;;27.50;13.70;;;;;;;-147.86;100.00;-17609.17;105268;1262;59935;-57
2024/02/24 09:32:22;;;;;;;26.80;13.00;;;;;;;-147.86;100.00;-17609.17;105221;1259;71795;-59
2024/02/24 09:34:49;;;;;;;22.50;12.80;;;;;;;-147.86;100.00;-17609.17;105245;1261;62226;-56
2024/02/24 09:37:17;;;;;;;20.30;12.50;;;;;;;-147.86;100.00;-17609.17;105257;1260;75052;-57
2024/02/24 09:39:45;;;;;;;22.50;12.40;;;;;;;-147.86;100.00;-17609.17;105252;1261;59790;-57
2024/02/24 09:42:13;;;;;;;25.60;13.60;;;;;;;-147.86;100.00;-17609.17;105220;1266;60041;-56
2024/02/24 09:44:41;;;;;;;21.20;12.20;;;;;;;-147.86;100.00;-17609.17;105187;1266;71043;-56
2024/02/24 09:47:09;;;;;;;20.30;12.50;;;;;;;-147.86;100.00;-17609.17;105257;1261;65567;-56
2024/02/24 09:49:37;;;;;;;19.60;11.80;;;;;;;-147.86;100.00;-17609.17;105292;1264;72619;-55
2024/02/24 09:52:05;;;;;;;23.10;13.50;;;;;;;-147.86;100.00;-17609.17;105243;1266;62014;-58
2024/02/24 09:54:33;;;;;;;25.30;13.90;;;;;;;-147.86;100.00;-17609.17;105278;1266;59649;-52
2024/02/24 09:57:01;;;;;;;21.30;13.00;;;;;;;-147.86;100.00;-17609.17;105136;1261;71632;-54
2024/02/24 09:59:29;;;;;;;23.50;13.90;;;;;;;-147.86;100.00;-17609.17;105137;1268;66740;-55
2024/02/24 10:01:57;;;;;;;24.20;12.80;;;;;;;-147.86;100.00;-17609.17;104869;1269;72898;-56
2024/02/24 10:04:25;;;;;;;16.90;11.20;;;;;;;-147.86;100.00;-17609.17;105204;1264;60462;-54
2024/02/24 10:06:55;;;;;;;20.60;12.90;;;;;;;-147.86;100.00;-17609.17;104886;1269;59595;-54
2024/02/24 10:09:23;;;;;;;21.40;12.00;;;;;;;-147.86;100.00;-17609.17;105260;1260;71947;-53
2024/02/24 10:11:51;;;;;;;17.80;11.30;;;;;;;-147.86;100.00;-17609.17;105244;1266;65754;-55
2024/02/24 10:14:19;;;;;;;20.30;12.90;;;;;;;-147.86;100.00;-17609.17;104924;1270;71928;-53
2024/02/24 10:16:51;;;;;;;16.20;10.80;;;;;;;-147.86;100.00;-17609.17;105203;1264;60408;-53
2024/02/24 10:19:19;;;;;;;15.10;10.20;;;;;;;-147.86;100.00;-17609.17;105054;1269;60040;-53
2024/02/24 10:21:48;;;;;;;17.80;10.90;;;;;;;-147.86;100.00;-17609.17;104959;1261;73401;-56
2024/02/24 10:24:16;;;;;;;15.50;10.80;;;;;;;-147.86;100.00;-17609.17;105221;1268;64723;-53
2024/02/24 10:26:44;;;;;;;43.50;25.40;;;;;;;-147.86;100.00;-17609.17;105182;1264;71393;-56
2024/02/24 10:29:11;;;;;;;57.80;26.30;;;;;;;-147.86;100.00;-17609.17;105167;1269;60069;-53
2024/02/24 10:31:39;;;;;;;36.80;16.70;;;;;;;-147.86;100.00;-17609.17;105075;1261;62315;-56
2024/02/24 10:34:07;;;;;;;42.10;20.50;;;;;;;-147.86;100.00;-17609.17;104931;1261;73308;-55
2024/02/24 10:36:35;;;;;;;28.10;13.90;;;;;;;-147.86;100.00;-17609.17;105209;1265;64331;-59
2024/02/24 10:39:03;;;;;;;33.60;17.50;;;;;;;-147.86;100.00;-17609.17;105508;1258;72517;-54
2024/02/24 10:41:31;;;;;;;30.20;15.50;;;;;;;-147.86;100.00;-17609.17;105465;1263;60103;-54
2024/02/24 10:43:59;;;;;;;20.20;12.30;;;;;;;-147.86;100.00;-17609.17;105285;1257;59951;-55
2024/02/24 10:46:41;;;;;;;21.60;12.40;;;;;;;-147.86;100.00;-17609.17;105564;1263;75139;-54
2024/02/24 10:49:12;;;;;;;16.60;11.40;;;;;;;-147.86;100.00;-17609.17;105578;1257;63213;-56
2024/02/24 10:51:45;;;;;;;20.10;10.80;;;;;;;-147.86;100.00;-17609.17;105541;1256;75158;-52
2024/02/24 10:54:16;;;;;;;18.90;10.10;;;;;;;-147.86;100.00;-17609.17;105529;1257;63614;-57
2024/02/24 10:56:44;;;;;;;16.60;9.40;;;;;;;-147.86;100.00;-17609.17;105234;1257;59727;-55
2024/02/24 10:59:12;;;;;;;17.10;11.30;;;;;;;-147.86;100.00;-17609.17;105477;1256;75608;-52
2024/02/24 11:01:45;;;;;;;15.80;9.40;;;;;;;-147.86;100.00;-17609.17;105592;1261;64757;-55
2024/02/24 11:04:16;;;;;;;14.60;9.90;;;;;;;-147.86;100.00;-17609.17;105623;1257;74898;-55
2024/02/24 11:06:51;;;;;;;12.20;8.70;;;;;;;-147.86;100.00;-17609.17;105566;1262;61646;-53
2024/02/24 11:09:28;;;;;;;11.70;8.50;;;;;;;-147.86;100.00;-17609.17;105539;1257;59708;-53
2024/02/24 11:12:08;;;;;;;13.00;9.10;;;;;;;-147.86;100.00;-17609.17;105569;1255;71805;-54
2024/02/24 11:14:37;;;;;;;13.00;8.10;;;;;;;-147.86;100.00;-17609.17;105548;1258;63313;-51
2024/02/24 11:17:05;;;;;;;12.60;8.60;;;;;;;-147.86;100.00;-17609.17;105614;1260;73644;-55
2024/02/24 11:19:40;;;;;;;14.20;8.30;;;;;;;-147.86;100.00;-17609.17;105548;1263;60142;-55
2024/02/24 11:22:12;;;;;;;12.30;8.40;;;;;;;-147.86;100.00;-17609.17;105534;1260;60219;-53
2024/02/24 11:24:40;;;;;;;10.50;7.80;;;;;;;-147.86;100.00;-17609.17;105542;1258;72136;-54
2024/02/24 11:27:07;;;;;;;13.70;9.00;;;;;;;-147.86;100.00;-17609.17;105592;1258;63375;-55
2024/02/24 11:29:36;;;;;;;13.40;9.20;;;;;;;-147.86;100.00;-17609.17;105494;1262;71537;-53
2024/02/24 11:32:04;;;;;;;12.70;8.90;;;;;;;-147.86;100.00;-17609.17;105370;1258;59954;-56
2024/02/24 11:34:34;;;;;;;14.50;9.90;;;;;;;-147.86;100.00;-17609.17;105542;1262;61094;-57
2024/02/24 11:37:02;;;;;;;15.60;10.30;;;;;;;-147.86;100.00;-17609.17;105507;1255;71421;-52
2024/02/24 11:39:30;;;;;;;14.40;8.80;;;;;;;-147.86;100.00;-17609.17;105547;1263;63357;-57
2024/02/24 11:41:57;;;;;;;15.10;9.20;;;;;;;-147.86;100.00;-17609.17;105610;1263;71412;-57
2024/02/24 11:44:25;;;;;;;17.70;10.00;;;;;;;-147.86;100.00;-17609.17;105575;1263;61219;-52
2024/02/24 11:46:53;;;;;;;15.20;10.20;;;;;;;-147.86;100.00;-17609.17;105614;1256;60633;-54
2024/02/24 11:49:21;;;;;;;18.10;10.90;;;;;;;-147.86;100.00;-17609.17;105294;1258;75080;-59
2024/02/24 11:51:49;;;;;;;19.90;10.70;;;;;;;-147.86;100.00;-17609.17;105557;1263;64831;-55
2024/02/24 11:54:17;;;;;;;16.00;10.20;;;;;;;-147.86;100.00;-17609.17;105389;1261;72736;-59
2024/02/24 11:56:45;;;;;;;16.60;10.50;;;;;;;-147.86;100.00;-17609.17;105587;1262;62588;-53
2024/02/24 11:59:14;;;;;;;17.80;10.20;;;;;;;-147.86;100.00;-17609.17;105294;1260;62328;-53
2024/02/24 12:01:42;;;;;;;19.80;11.00;;;;;;;-147.86;100.00;-17609.17;105586;1262;72201;-58
2024/02/24 12:04:13;;;;;;;23.70;10.80;;;;;;;-147.86;100.00;-17609.17;105557;1263;66429;-53
2024/02/24 12:06:43;;;;;;;27.40;11.80;;;;;;;-147.86;100.00;-17609.17;105573;1257;72929;-56
2024/02/24 12:09:11;;;;;;;16.80;10.70;;;;;;;-147.86;100.00;-17609.17;105501;1262;61927;-53
2024/02/24 12:11:39;;;;;;;14.00;10.60;;;;;;;-147.86;100.00;-17609.17;105585;1258;62408;-54
2024/02/24 12:14:08;;;;;;;15.90;10.50;;;;;;;-147.86;100.00;-17609.17;105536;1262;71984;-53
2024/02/24 12:16:37;;;;;;;17.90;9.90;;;;;;;-147.86;100.00;-17609.17;105569;1262;65081;-55
2024/02/24 12:19:05;;;;;;;17.40;9.80;;;;;;;-147.86;100.00;-17609.17;105553;1263;74970;-57